createdAt,value
2023-05-17T00:01:58.595Z,1.70
2023-05-17T00:05:00.030Z,1.90
2023-05-17T00:08:01.521Z,1.40
2023-05-17T00:11:02.941Z,1.33
2023-05-17T00:14:04.493Z,1.73
2023-05-17T00:17:06.087Z,1.63
2023-05-17T00:20:07.999Z,1.80
2023-05-17T00:23:09.466Z,1.57
2023-05-17T00:26:10.896Z,1.70
2023-05-17T00:29:12.315Z,1.50
2023-05-17T00:32:13.882Z,1.70
2023-05-17T00:35:15.506Z,1.87
2023-05-17T00:38:16.996Z,1.47
2023-05-17T00:41:18.487Z,1.67
2023-05-17T00:44:20.799Z,1.50
2023-05-17T00:47:22.308Z,1.50
2023-05-17T00:50:26.045Z,1.70
2023-05-17T00:53:28.660Z,1.63
2023-05-17T00:56:31.631Z,1.60
2023-05-17T00:59:33.876Z,2.00
2023-05-17T01:02:36.619Z,1.60
2023-05-17T01:05:38.556Z,1.50
2023-05-17T01:08:39.990Z,1.83
2023-05-17T01:12:00.377Z,1.80
2023-05-17T01:15:31.541Z,1.57
2023-05-17T01:18:46.690Z,1.57
2023-05-17T01:22:07.713Z,1.80
2023-05-17T01:26:04.444Z,1.50
2023-05-17T01:29:09.260Z,1.53
2023-05-17T01:32:12.812Z,1.87
2023-05-17T01:35:16.200Z,1.50
2023-05-17T01:38:17.745Z,1.80
2023-05-17T01:41:26.633Z,1.70
2023-05-17T01:44:43.649Z,1.83
2023-05-17T01:48:15.307Z,1.83
2023-05-17T01:51:19.839Z,1.83
2023-05-17T01:54:23.681Z,1.80
2023-05-17T01:57:29.614Z,1.40
2023-05-17T02:00:31.645Z,1.70
2023-05-17T02:03:33.072Z,1.97
2023-05-17T02:06:34.508Z,2.13
2023-05-17T02:09:35.977Z,2.10
2023-05-17T02:12:37.402Z,1.73
2023-05-17T02:15:38.962Z,2.00
2023-05-17T02:18:41.296Z,1.70
2023-05-17T02:21:42.776Z,1.70
2023-05-17T02:24:44.327Z,1.93
2023-05-17T02:27:46.695Z,2.17
2023-05-17T02:30:48.154Z,1.60
2023-05-17T02:33:49.627Z,1.97
2023-05-17T02:36:52.327Z,2.00
2023-05-17T02:39:53.751Z,2.03
2023-05-17T02:42:55.214Z,2.30
2023-05-17T02:45:56.641Z,1.80
2023-05-17T02:48:58.065Z,1.80
2023-05-17T02:52:00.745Z,2.07
2023-05-17T02:55:02.536Z,1.70
2023-05-17T02:58:04.455Z,1.87
2023-05-17T03:01:06.780Z,2.00
2023-05-17T03:04:08.778Z,2.00
2023-05-17T03:07:11.491Z,2.10
2023-05-17T03:10:14.030Z,1.93
2023-05-17T03:13:19.120Z,2.10
2023-05-17T03:16:20.781Z,2.20
2023-05-17T03:19:24.278Z,2.00
2023-05-17T03:22:27.091Z,2.10
2023-05-17T03:25:30.510Z,2.27
2023-05-17T03:28:32.205Z,2.17
2023-05-17T03:31:34.557Z,1.80
2023-05-17T03:34:37.119Z,2.50
2023-05-17T03:37:38.569Z,2.37
2023-05-17T03:40:41.310Z,2.00
2023-05-17T03:43:42.815Z,2.00
2023-05-17T03:46:46.700Z,2.30
2023-05-17T03:49:50.656Z,2.23
2023-05-17T03:52:52.961Z,1.70
2023-05-17T03:55:54.402Z,2.50
2023-05-17T03:58:56.305Z,3.23
2023-05-17T04:01:58.222Z,3.10
2023-05-17T04:04:59.695Z,2.80
2023-05-17T04:08:01.373Z,2.60
2023-05-17T04:11:13.876Z,2.70
2023-05-17T04:14:17.697Z,2.47
2023-05-17T04:17:19.737Z,3.00
2023-05-17T04:20:22.901Z,2.50
2023-05-17T04:23:24.580Z,2.63
2023-05-17T04:26:26.811Z,3.40
2023-05-17T04:29:28.288Z,3.80
2023-05-17T04:32:30.050Z,4.00
2023-05-17T04:35:32.667Z,3.50
2023-05-17T04:38:34.380Z,3.03
2023-05-17T04:41:36.249Z,2.80
2023-05-17T04:44:40.098Z,3.10
2023-05-17T04:47:44.613Z,2.67
2023-05-17T04:50:47.169Z,2.63
2023-05-17T04:53:50.251Z,2.47
2023-05-17T04:56:52.983Z,3.00
2023-05-17T05:00:15.537Z,2.40
2023-05-17T05:03:20.012Z,2.47
2023-05-17T05:06:22.247Z,2.70
2023-05-17T05:09:23.967Z,2.77
2023-05-17T05:12:26.142Z,2.80
2023-05-17T05:15:28.283Z,2.50
2023-05-17T05:18:34.068Z,2.53
2023-05-17T05:21:35.886Z,2.73
2023-05-17T05:24:38.026Z,2.67
2023-05-17T05:27:39.614Z,2.80
2023-05-17T05:30:41.579Z,2.50
2023-05-17T05:33:43.502Z,2.90
2023-05-17T05:36:45.532Z,2.90
2023-05-17T05:39:47.109Z,2.83
2023-05-17T05:42:48.572Z,2.67
2023-05-17T05:45:50.306Z,2.93
2023-05-17T05:48:51.996Z,2.90
2023-05-17T05:51:53.977Z,3.10
2023-05-17T05:54:55.767Z,3.00
2023-05-17T05:57:57.521Z,3.10
2023-05-17T06:00:59.950Z,2.80
2023-05-17T06:04:01.388Z,3.47
2023-05-17T06:07:02.904Z,3.03
2023-05-17T06:10:04.532Z,2.90
2023-05-17T06:13:06.113Z,2.80
2023-05-17T06:16:07.587Z,3.10
2023-05-17T06:19:09.076Z,2.77
2023-05-17T06:22:10.547Z,3.47
2023-05-17T06:25:12.040Z,3.23
2023-05-17T06:28:13.470Z,3.10
2023-05-17T06:31:14.922Z,2.87
2023-05-17T06:34:16.405Z,4.60
2023-05-17T06:37:18.149Z,2.93
2023-05-17T06:40:19.731Z,3.20
2023-05-17T06:43:21.887Z,3.40
2023-05-17T06:46:23.384Z,3.00
2023-05-17T06:49:24.839Z,2.90
2023-05-17T06:52:26.261Z,2.83
2023-05-17T06:55:29.013Z,2.80
2023-05-17T06:58:32.572Z,3.10
2023-05-17T07:01:34.643Z,2.93
2023-05-17T07:04:36.621Z,2.70
2023-05-17T07:07:38.218Z,2.70
2023-05-17T07:10:42.806Z,2.47
2023-05-17T07:13:44.268Z,3.00
2023-05-17T07:16:45.904Z,2.90
2023-05-17T07:19:50.867Z,2.93
2023-05-17T07:22:52.529Z,2.90
2023-05-17T07:25:54.000Z,3.60
2023-05-17T07:28:55.473Z,3.57
2023-05-17T07:31:57.156Z,3.20
2023-05-17T07:34:58.790Z,3.57
2023-05-17T07:38:00.236Z,2.93
2023-05-17T07:41:02.110Z,3.20
2023-05-17T07:44:03.545Z,3.30
2023-05-17T07:47:05.286Z,3.33
2023-05-17T07:50:07.539Z,3.13
2023-05-17T07:53:08.966Z,3.03
2023-05-17T07:56:10.456Z,3.20
2023-05-17T07:59:11.870Z,3.57
2023-05-17T08:02:13.398Z,2.97
2023-05-17T08:05:14.897Z,3.50
2023-05-17T08:08:16.318Z,3.27
2023-05-17T08:11:18.279Z,3.20
2023-05-17T08:14:23.461Z,3.10
2023-05-17T08:17:24.989Z,3.33
2023-05-17T08:20:26.509Z,3.17
2023-05-17T08:23:27.947Z,3.17
2023-05-17T08:26:29.517Z,3.23
2023-05-17T08:29:31.009Z,3.27
2023-05-17T08:32:32.690Z,2.80
2023-05-17T08:35:34.313Z,2.97
2023-05-17T08:38:35.911Z,2.83
2023-05-17T08:41:37.385Z,2.70
2023-05-17T08:44:38.946Z,2.87
2023-05-17T08:47:43.060Z,2.73
2023-05-17T08:50:46.656Z,3.30
2023-05-17T08:53:50.403Z,3.47
2023-05-17T08:57:00.150Z,2.83
2023-05-17T09:00:01.782Z,2.90
2023-05-17T09:03:03.382Z,3.27
2023-05-17T09:06:05.573Z,3.57
2023-05-17T09:09:07.468Z,2.97
2023-05-17T09:12:09.061Z,3.40
2023-05-17T09:15:15.124Z,3.23
2023-05-17T09:18:19.416Z,3.30
2023-05-17T09:21:22.770Z,3.33
2023-05-17T09:24:30.198Z,3.20
2023-05-17T09:27:32.337Z,3.37
2023-05-17T09:30:37.997Z,2.80
2023-05-17T09:33:46.842Z,3.40
2023-05-17T09:36:48.406Z,2.97
2023-05-17T09:39:49.882Z,2.80
2023-05-17T09:42:51.650Z,2.80
2023-05-17T09:45:59.691Z,3.00
2023-05-17T09:49:03.012Z,3.00
2023-05-17T09:52:08.262Z,2.50
2023-05-17T09:55:11.683Z,2.50
2023-05-17T09:58:13.892Z,2.77
2023-05-17T10:01:16.502Z,2.90
2023-05-17T10:04:23.104Z,2.83
2023-05-17T10:07:26.483Z,2.57
2023-05-17T10:10:29.930Z,2.60
2023-05-17T10:13:35.988Z,2.90
2023-05-17T10:16:38.505Z,2.60
2023-05-17T10:19:40.645Z,4.63
2023-05-17T10:22:42.585Z,2.30
2023-05-17T10:25:44.716Z,2.90
2023-05-17T10:28:47.888Z,2.60
2023-05-17T10:31:52.669Z,2.60
2023-05-17T10:35:06.567Z,2.57
2023-05-17T10:38:13.556Z,2.80
2023-05-17T10:41:18.199Z,2.40
2023-05-17T10:44:19.933Z,2.60
2023-05-17T10:47:22.242Z,2.57
2023-05-17T10:50:26.208Z,2.73
2023-05-17T10:53:27.883Z,2.80
2023-05-17T10:56:33.353Z,2.57
2023-05-17T10:59:35.607Z,2.73
2023-05-17T11:02:42.402Z,2.60
2023-05-17T11:06:03.733Z,2.67
2023-05-17T11:09:16.423Z,2.63
2023-05-17T11:12:53.855Z,2.50
2023-05-17T11:16:07.774Z,2.37
2023-05-17T11:19:11.973Z,2.63
2023-05-17T11:22:16.251Z,2.50
2023-05-17T11:25:19.101Z,2.50
2023-05-17T11:28:22.307Z,2.70
2023-05-17T11:31:32.021Z,2.87
2023-05-17T11:34:33.834Z,2.90
2023-05-17T11:37:35.545Z,2.40
2023-05-17T11:40:37.697Z,2.63
2023-05-17T11:43:46.336Z,2.70
2023-05-17T11:46:48.138Z,2.43
2023-05-17T11:49:53.696Z,2.73
2023-05-17T11:52:58.248Z,2.33
2023-05-17T11:56:04.255Z,3.10
2023-05-17T11:59:05.806Z,2.50
2023-05-17T12:02:07.491Z,2.73
2023-05-17T12:05:09.338Z,3.00
2023-05-17T12:08:11.730Z,2.77
2023-05-17T12:11:17.409Z,3.17
2023-05-17T12:14:20.234Z,2.93
2023-05-17T12:17:28.864Z,2.90
2023-05-17T12:20:33.135Z,2.80
2023-05-17T12:23:41.027Z,2.93
2023-05-17T12:26:46.807Z,2.80
2023-05-17T12:29:48.230Z,2.83
2023-05-17T12:32:49.978Z,2.80
2023-05-17T12:35:51.919Z,2.70
2023-05-17T12:38:53.824Z,3.00
2023-05-17T12:41:55.401Z,2.60
2023-05-17T12:44:59.444Z,3.10
2023-05-17T12:48:00.944Z,2.80
2023-05-17T12:51:14.036Z,2.93
2023-05-17T12:54:26.686Z,2.80
2023-05-17T12:57:28.101Z,3.40
2023-05-17T13:00:29.798Z,3.13
2023-05-17T13:03:31.927Z,2.70
2023-05-17T13:06:54.119Z,2.03
2023-05-17T13:09:55.760Z,2.70
2023-05-17T13:12:58.489Z,2.90
2023-05-17T13:15:59.936Z,2.40
2023-05-17T13:19:01.515Z,2.47
2023-05-17T13:22:04.179Z,2.47
2023-05-17T13:25:06.390Z,2.73
2023-05-17T13:28:07.791Z,3.10
2023-05-17T13:31:09.289Z,2.73
2023-05-17T13:34:11.319Z,2.70
2023-05-17T13:37:13.115Z,3.00
2023-05-17T13:40:15.053Z,2.83
2023-05-17T13:43:16.624Z,2.50
2023-05-17T13:46:18.033Z,2.70
2023-05-17T13:49:19.575Z,2.63
2023-05-17T13:52:22.941Z,2.80
2023-05-17T13:55:24.752Z,2.83
2023-05-17T13:58:26.643Z,2.80
2023-05-17T14:01:28.105Z,2.90
2023-05-17T14:04:29.565Z,2.30
2023-05-17T14:07:30.999Z,2.90
2023-05-17T14:10:32.603Z,2.73
2023-05-17T14:13:34.011Z,2.83
2023-05-17T14:16:35.999Z,2.93
2023-05-17T14:19:37.613Z,2.70
2023-05-17T14:22:39.082Z,2.67
2023-05-17T14:25:43.593Z,2.53
2023-05-17T14:28:45.008Z,2.60
2023-05-17T14:31:46.590Z,2.90
2023-05-17T14:34:48.116Z,2.40
2023-05-17T14:37:49.560Z,2.73
2023-05-17T14:40:51.025Z,3.10
2023-05-17T14:46:54.173Z,2.60
2023-05-17T14:49:55.706Z,2.70
2023-05-17T14:52:57.114Z,2.70
2023-05-17T14:56:01.865Z,2.67
2023-05-17T14:59:03.341Z,2.60
2023-05-17T15:02:05.222Z,2.90
2023-05-17T15:05:07.167Z,2.60
2023-05-17T15:08:08.799Z,2.60
2023-05-17T15:11:10.675Z,2.67
2023-05-17T15:14:12.397Z,2.57
2023-05-17T15:17:13.827Z,2.77
2023-05-17T15:20:15.620Z,2.40
2023-05-17T15:23:17.156Z,2.90
2023-05-17T15:26:18.635Z,2.67
2023-05-17T15:29:20.119Z,2.90
2023-05-17T15:32:21.605Z,3.07
2023-05-17T15:35:23.157Z,2.70
2023-05-17T15:38:24.577Z,2.43
2023-05-17T15:41:29.804Z,2.83
2023-05-17T15:44:31.652Z,2.80
2023-05-17T15:50:38.113Z,2.93
2023-05-17T15:53:39.558Z,2.43
2023-05-17T15:56:41.926Z,2.60
2023-05-17T15:59:43.498Z,2.63
2023-05-17T16:02:44.982Z,2.77
2023-05-17T16:05:46.507Z,2.43
2023-05-17T16:08:47.995Z,2.70
2023-05-17T16:11:49.422Z,2.50
2023-05-17T16:14:50.852Z,2.83
2023-05-17T16:17:52.436Z,2.70
2023-05-17T16:20:58.593Z,2.73
2023-05-17T16:23:59.993Z,2.50
2023-05-17T16:27:03.169Z,2.77
2023-05-17T16:30:06.673Z,2.23
2023-05-17T16:33:09.135Z,2.40
2023-05-17T16:36:12.278Z,2.50
2023-05-17T16:39:13.831Z,2.53
2023-05-17T16:42:15.530Z,2.57
2023-05-17T16:45:16.965Z,2.30
2023-05-17T16:48:18.427Z,2.40
2023-05-17T16:51:19.871Z,1.93
2023-05-17T16:54:21.293Z,2.20
2023-05-17T16:57:22.715Z,2.10
2023-05-17T17:00:24.271Z,2.60
2023-05-17T17:03:25.936Z,2.13
2023-05-17T17:06:27.560Z,2.43
2023-05-17T17:09:29.018Z,2.37
2023-05-17T17:12:30.439Z,2.30
2023-05-17T17:15:32.178Z,2.13
2023-05-17T17:18:33.879Z,2.20
2023-05-17T17:21:39.162Z,2.63
2023-05-17T17:24:40.974Z,2.10
2023-05-17T17:27:42.464Z,1.93
2023-05-17T17:30:43.929Z,1.80
2023-05-17T17:33:45.496Z,2.30
2023-05-17T17:36:46.965Z,2.23
2023-05-17T17:39:48.476Z,2.63
2023-05-17T17:42:49.962Z,1.90
2023-05-17T17:45:51.431Z,2.13
2023-05-17T17:48:54.425Z,1.93
2023-05-17T17:51:58.171Z,2.13
2023-05-17T17:54:59.658Z,2.30
2023-05-17T17:58:01.184Z,2.10
2023-05-17T18:01:03.447Z,2.20
2023-05-17T18:04:05.572Z,2.40
2023-05-17T18:07:07.194Z,2.50
2023-05-17T18:10:09.040Z,2.10
2023-05-17T18:13:10.627Z,2.20
2023-05-17T18:16:12.770Z,2.20
2023-05-17T18:19:14.375Z,2.40
2023-05-17T18:22:20.896Z,2.60
2023-05-17T18:25:23.289Z,2.60
2023-05-17T18:28:38.272Z,2.37
2023-05-17T18:31:43.931Z,2.47
2023-05-17T18:34:45.651Z,2.70
2023-05-17T18:37:47.154Z,2.60
2023-05-17T18:40:49.080Z,2.40
2023-05-17T18:43:51.588Z,2.20
2023-05-17T18:46:54.195Z,2.27
2023-05-17T18:49:55.823Z,1.90
2023-05-17T18:52:57.387Z,2.13
2023-05-17T18:56:02.531Z,2.23
2023-05-17T18:59:04.976Z,2.47
2023-05-17T19:02:07.125Z,2.17
2023-05-17T19:05:08.821Z,2.20
2023-05-17T19:08:10.461Z,2.20
2023-05-17T19:11:11.887Z,2.30
2023-05-17T19:14:14.712Z,2.17
2023-05-17T19:17:17.446Z,2.70
2023-05-17T19:20:19.218Z,2.10
2023-05-17T19:23:21.526Z,3.00
2023-05-17T19:26:22.980Z,2.20
2023-05-17T19:29:27.123Z,2.53
2023-05-17T19:32:30.168Z,2.40
2023-05-17T19:35:31.706Z,2.43
2023-05-17T19:38:33.288Z,4.00
2023-05-17T19:41:34.967Z,9.70
2023-05-17T19:44:36.435Z,7.60
2023-05-17T19:47:38.957Z,6.80
2023-05-17T19:50:43.953Z,8.10
2023-05-17T19:53:53.072Z,7.83
2023-05-17T19:56:56.206Z,5.33
2023-05-17T19:59:57.653Z,3.90
2023-05-17T20:02:59.400Z,6.47
2023-05-17T20:06:01.017Z,3.90
2023-05-17T20:09:02.476Z,4.80
2023-05-17T20:12:04.400Z,3.30
2023-05-17T20:15:06.727Z,2.60
2023-05-17T20:18:09.188Z,3.10
2023-05-17T20:21:15.083Z,2.70
2023-05-17T20:24:16.674Z,2.80
2023-05-17T20:27:18.312Z,3.00
2023-05-17T20:30:19.802Z,3.37
2023-05-17T20:33:26.287Z,2.77
2023-05-17T20:36:27.754Z,2.80
2023-05-17T20:39:30.766Z,4.30
2023-05-17T20:42:32.562Z,3.70
2023-05-17T20:45:34.151Z,3.67
2023-05-17T20:48:36.333Z,4.40
2023-05-17T20:51:37.927Z,4.33
2023-05-17T20:54:39.359Z,3.67
2023-05-17T20:57:41.832Z,3.80
2023-05-17T21:00:43.361Z,3.50
2023-05-17T21:03:45.843Z,3.63
2023-05-17T21:06:47.525Z,2.27
2023-05-17T21:09:48.996Z,2.20
2023-05-17T21:12:51.306Z,2.10
2023-05-17T21:15:54.113Z,2.90
2023-05-17T21:18:55.663Z,3.33
2023-05-17T21:21:57.140Z,2.47
2023-05-17T21:24:58.569Z,2.53
2023-05-17T21:27:59.995Z,2.60
2023-05-17T21:31:01.727Z,2.10
2023-05-17T21:34:03.919Z,2.17
2023-05-17T21:37:05.533Z,2.47
2023-05-17T21:40:08.073Z,2.83
2023-05-17T21:43:12.271Z,2.53
2023-05-17T21:46:13.714Z,2.63
2023-05-17T21:49:15.389Z,2.50
2023-05-17T21:52:17.384Z,2.50
2023-05-17T21:55:18.806Z,2.43
2023-05-17T21:58:21.226Z,2.33
2023-05-17T22:01:24.037Z,2.40
2023-05-17T22:04:26.215Z,2.03
2023-05-17T22:07:27.693Z,2.27
2023-05-17T22:10:30.524Z,2.57
2023-05-17T22:13:32.564Z,2.57
2023-05-17T22:16:35.770Z,3.00
2023-05-17T22:19:40.301Z,3.23
2023-05-17T22:22:41.855Z,3.00
2023-05-17T22:25:43.468Z,3.90
2023-05-17T22:28:45.122Z,2.97
2023-05-17T22:31:47.282Z,2.67
2023-05-17T22:34:49.805Z,2.07
2023-05-17T22:37:51.867Z,1.90
2023-05-17T22:40:53.316Z,1.97
2023-05-17T22:43:54.744Z,1.80
2023-05-17T22:46:57.664Z,2.03
2023-05-17T22:50:00.626Z,2.03
2023-05-17T22:53:02.072Z,2.00
2023-05-17T22:56:03.637Z,1.93
2023-05-17T22:59:05.054Z,1.80
2023-05-17T23:02:06.694Z,1.60
2023-05-17T23:05:08.601Z,2.00
2023-05-17T23:08:10.035Z,1.97
2023-05-17T23:11:11.469Z,1.97
2023-05-17T23:14:13.934Z,2.03
2023-05-17T23:17:15.620Z,1.97
2023-05-17T23:20:17.318Z,2.00
2023-05-17T23:23:19.180Z,1.60
2023-05-17T23:26:22.002Z,1.90
2023-05-17T23:29:23.883Z,2.33
2023-05-17T23:32:25.429Z,1.83
2023-05-17T23:35:26.959Z,1.90
2023-05-17T23:38:28.597Z,2.13
2023-05-17T23:41:30.510Z,1.83
2023-05-17T23:44:33.313Z,2.07
2023-05-17T23:47:34.875Z,1.70
2023-05-17T23:50:37.063Z,2.00
2023-05-17T23:53:38.463Z,1.57
2023-05-17T23:56:39.896Z,1.97
2023-05-17T23:59:41.998Z,1.87
